sensor_id;sensor_type;location;lat;lon;timestamp;P1;P2;P0
53698;PMS7003;68408;53.952;27.612;2023-03-12T00:03:55;3.4;2.2;1.5
53698;PMS7003;68408;53.952;27.612;2023-03-12T00:08:25;4.2;3;2.1
53698;PMS7003;68408;53.952;27.612;2023-03-12T00:14:07;2.7;1.6;1.3
53698;PMS7003;68408;53.952;27.612;2023-03-12T00:18:55;2.1;1.1;0.8
53698;PMS7003;68408;53.952;27.612;2023-03-12T00:23:25;2.2;1.4;1
53698;PMS7003;68408;53.952;27.612;2023-03-12T00:28:55;2.8;1.6;1.2
53698;PMS7003;68408;53.952;27.612;2023-03-12T00:33:31;1.8;0.9;0.6
53698;PMS7003;68408;53.952;27.612;2023-03-12T00:39:08;1.4;0.8;0.6
53698;PMS7003;68408;53.952;27.612;2023-03-12T00:44:07;0.9;0.4;0.3
53698;PMS7003;68408;53.952;27.612;2023-03-12T00:48:35;1;0.7;0.4
53698;PMS7003;68408;53.952;27.612;2023-03-12T00:53:55;1.3;0.7;0.5
53698;PMS7003;68408;53.952;27.612;2023-03-12T00:58:43;1.3;0.5;0.4
53698;PMS7003;68408;53.952;27.612;2023-03-12T01:04:08;1.1;0.5;0.3
53698;PMS7003;68408;53.952;27.612;2023-03-12T01:08:55;0.7;0.3;0.2
53698;PMS7003;68408;53.952;27.612;2023-03-12T01:14:00;1.1;0.1;0.1
53698;PMS7003;68408;53.952;27.612;2023-03-12T01:18:47;0.5;0.4;0.2
53698;PMS7003;68408;53.952;27.612;2023-03-12T01:23:25;0.4;0.3;0.2
53698;PMS7003;68408;53.952;27.612;2023-03-12T01:29:03;0.6;0.2;0.1
53698;PMS7003;68408;53.952;27.612;2023-03-12T01:33:25;0.8;0.3;0.2
53698;PMS7003;68408;53.952;27.612;2023-03-12T01:38:25;0.8;0.6;0.3
53698;PMS7003;68408;53.952;27.612;2023-03-12T01:43:55;0.7;0.2;0.1
53698;PMS7003;68408;53.952;27.612;2023-03-12T01:48:38;0.7;0.2;0.1
53698;PMS7003;68408;53.952;27.612;2023-03-12T01:54:08;0.5;0.1;0
53698;PMS7003;68408;53.952;27.612;2023-03-12T01:58:44;0.4;0.1;0
53698;PMS7003;68408;53.952;27.612;2023-03-12T02:03:26;0.5;0.1;0
53698;PMS7003;68408;53.952;27.612;2023-03-12T02:08:55;0.7;0.2;0
53698;PMS7003;68408;53.952;27.612;2023-03-12T02:13:41;0.2;0.1;0.1
53698;PMS7003;68408;53.952;27.612;2023-03-12T02:19:10;0.3;0;0
53698;PMS7003;68408;53.952;27.612;2023-03-12T02:23:32;0.1;0.1;0
53698;PMS7003;68408;53.952;27.612;2023-03-12T02:28:35;0.6;0.1;0
53698;PMS7003;68408;53.952;27.612;2023-03-12T02:33:56;0.5;0.5;0.3
53698;PMS7003;68408;53.952;27.612;2023-03-12T02:38:39;0.3;0;0
53698;PMS7003;68408;53.952;27.612;2023-03-12T02:44:07;0.3;0;0
53698;PMS7003;68408;53.952;27.612;2023-03-12T02:48:50;0.6;0;0
53698;PMS7003;68408;53.952;27.612;2023-03-12T02:53:47;0.2;0;0
53698;PMS7003;68408;53.952;27.612;2023-03-12T02:58:55;0.4;0;0
53698;PMS7003;68408;53.952;27.612;2023-03-12T03:03:37;0.1;0;0
53698;PMS7003;68408;53.952;27.612;2023-03-12T03:09:07;0.1;0;0
53698;PMS7003;68408;53.952;27.612;2023-03-12T03:13:43;0.2;0;0
53698;PMS7003;68408;53.952;27.612;2023-03-12T03:18:37;1;0;0
53698;PMS7003;68408;53.952;27.612;2023-03-12T03:23:55;0.4;0;0
53698;PMS7003;68408;53.952;27.612;2023-03-12T03:28:43;0.5;0.1;0.1
53698;PMS7003;68408;53.952;27.612;2023-03-12T03:33:59;0.2;0;0
53698;PMS7003;68408;53.952;27.612;2023-03-12T03:38:43;0.1;0.1;0
53698;PMS7003;68408;53.952;27.612;2023-03-12T03:43:37;0.4;0;0
53698;PMS7003;68408;53.952;27.612;2023-03-12T03:48:55;0.7;0.1;0.1
53698;PMS7003;68408;53.952;27.612;2023-03-12T03:53:41;0.2;0.1;0.1
53698;PMS7003;68408;53.952;27.612;2023-03-12T03:59:07;1;0.2;0.1
53698;PMS7003;68408;53.952;27.612;2023-03-12T04:03:49;0.9;0.4;0.2
53698;PMS7003;68408;53.952;27.612;2023-03-12T04:08:26;0.3;0.1;0.1
53698;PMS7003;68408;53.952;27.612;2023-03-12T04:13:56;1.4;0.3;0.1
53698;PMS7003;68408;53.952;27.612;2023-03-12T04:18:43;0.8;0.3;0.2
53698;PMS7003;68408;53.952;27.612;2023-03-12T04:24:08;1.2;0.1;0
53698;PMS7003;68408;53.952;27.612;2023-03-12T04:28:41;0.6;0.2;0.1
53698;PMS7003;68408;53.952;27.612;2023-03-12T04:33:43;1.4;0.2;0.2
53698;PMS7003;68408;53.952;27.612;2023-03-12T04:38:43;0.8;0.1;0
53698;PMS7003;68408;53.952;27.612;2023-03-12T04:43:26;0.8;0.2;0.2
53698;PMS7003;68408;53.952;27.612;2023-03-12T04:49:05;0.1;0.1;0
53698;PMS7003;68408;53.952;27.612;2023-03-12T04:53:31;0.5;0.2;0.1
53698;PMS7003;68408;53.952;27.612;2023-03-12T04:58:47;0.4;0.1;0
53698;PMS7003;68408;53.952;27.612;2023-03-12T05:03:43;0.8;0.2;0.1
53698;PMS7003;68408;53.952;27.612;2023-03-12T05:08:25;2.9;1.8;1.3
53698;PMS7003;68408;53.952;27.612;2023-03-12T05:13:57;1.1;0.2;0.1
53698;PMS7003;68408;53.952;27.612;2023-03-12T05:18:25;2;0.8;0.6
53698;PMS7003;68408;53.952;27.612;2023-03-12T05:23:45;0.5;0.3;0.2
53698;PMS7003;68408;53.952;27.612;2023-03-12T05:29:04;1.1;0.5;0.3
53698;PMS7003;68408;53.952;27.612;2023-03-12T05:33:36;0.8;0.6;0.3
53698;PMS7003;68408;53.952;27.612;2023-03-12T05:39:05;1.4;0.5;0.1
53698;PMS7003;68408;53.952;27.612;2023-03-12T05:43:42;0.5;0.2;0.1
53698;PMS7003;68408;53.952;27.612;2023-03-12T05:48:35;1.7;0.6;0.4
53698;PMS7003;68408;53.952;27.612;2023-03-12T05:53:27;1.4;0.8;0.5
53698;PMS7003;68408;53.952;27.612;2023-03-12T05:58:57;1.8;0.5;0.3
53698;PMS7003;68408;53.952;27.612;2023-03-12T06:04:05;1;0.4;0.3
53698;PMS7003;68408;53.952;27.612;2023-03-12T06:08:31;1;0.6;0.5
53698;PMS7003;68408;53.952;27.612;2023-03-12T06:13:45;0.7;0.3;0.3
53698;PMS7003;68408;53.952;27.612;2023-03-12T06:18:54;0.8;0.5;0.4
53698;PMS7003;68408;53.952;27.612;2023-03-12T06:23:25;1.3;0.7;0.4
53698;PMS7003;68408;53.952;27.612;2023-03-12T06:29:05;1.7;0.6;0.4
53698;PMS7003;68408;53.952;27.612;2023-03-12T06:33:39;1.4;0.5;0.3
53698;PMS7003;68408;53.952;27.612;2023-03-12T06:38:36;2.1;1.1;0.8
53698;PMS7003;68408;53.952;27.612;2023-03-12T06:43:53;1.5;0.5;0.3
53698;PMS7003;68408;53.952;27.612;2023-03-12T06:48:26;0.7;0.7;0.4
53698;PMS7003;68408;53.952;27.612;2023-03-12T06:54:04;0.8;0.3;0.1
53698;PMS7003;68408;53.952;27.612;2023-03-12T06:58:26;1.3;0.8;0.7
53698;PMS7003;68408;53.952;27.612;2023-03-12T07:03:25;0.7;0.3;0.3
53698;PMS7003;68408;53.952;27.612;2023-03-12T07:08:48;1;0.6;0.4
53698;PMS7003;68408;53.952;27.612;2023-03-12T07:13:25;1.2;0.6;0.3
53698;PMS7003;68408;53.952;27.612;2023-03-12T07:19:05;0.7;0.7;0.6
53698;PMS7003;68408;53.952;27.612;2023-03-12T07:23:43;1.1;0.5;0.4
53698;PMS7003;68408;53.952;27.612;2023-03-12T07:28:35;1.9;0.7;0.5
53698;PMS7003;68408;53.952;27.612;2023-03-12T07:33:31;2.7;0.9;0.7
53698;PMS7003;68408;53.952;27.612;2023-03-12T07:38:33;1.6;0.8;0.6
53698;PMS7003;68408;53.952;27.612;2023-03-12T07:44:05;1.5;0.9;0.6
53698;PMS7003;68408;53.952;27.612;2023-03-12T07:48:33;3.5;2.8;2.1
53698;PMS7003;68408;53.952;27.612;2023-03-12T07:53:33;2.6;1.8;1.5
53698;PMS7003;68408;53.952;27.612;2023-03-12T07:58:55;1.8;1.2;1
53698;PMS7003;68408;53.952;27.612;2023-03-12T08:03:25;1.5;1;0.9
53698;PMS7003;68408;53.952;27.612;2023-03-12T08:09:05;2.1;1.3;1.1
53698;PMS7003;68408;53.952;27.612;2023-03-12T08:13:41;2.2;1.6;1.2
53698;PMS7003;68408;53.952;27.612;2023-03-12T08:18:33;2.8;1.8;1.5
53698;PMS7003;68408;53.952;27.612;2023-03-12T08:23:55;2.5;1.9;1.4
53698;PMS7003;68408;53.952;27.612;2023-03-12T08:28:36;2.6;1.4;1.2
53698;PMS7003;68408;53.952;27.612;2023-03-12T08:34:05;4.1;3.3;2.5
53698;PMS7003;68408;53.952;27.612;2023-03-12T08:38:26;3.1;2.3;1.7
53698;PMS7003;68408;53.952;27.612;2023-03-12T08:43:26;3.1;1.6;1.3
53698;PMS7003;68408;53.952;27.612;2023-03-12T08:48:53;4.2;2.7;2.1
53698;PMS7003;68408;53.952;27.612;2023-03-12T08:53:26;2.7;1.8;1.3
53698;PMS7003;68408;53.952;27.612;2023-03-12T08:59:05;2.5;1.4;1
53698;PMS7003;68408;53.952;27.612;2023-03-12T09:03:33;5.2;3.5;2.9
53698;PMS7003;68408;53.952;27.612;2023-03-12T09:08:25;4.3;3.3;2.4
53698;PMS7003;68408;53.952;27.612;2023-03-12T09:14:06;4.3;3;2.5
53698;PMS7003;68408;53.952;27.612;2023-03-12T09:18:35;3.8;3.2;2.6
53698;PMS7003;68408;53.952;27.612;2023-03-12T09:23:55;6.4;5.6;4.5
53698;PMS7003;68408;53.952;27.612;2023-03-12T09:28:43;8.2;5.6;4.4
53698;PMS7003;68408;53.952;27.612;2023-03-12T09:33:56;6.5;5.3;3.8
53698;PMS7003;68408;53.952;27.612;2023-03-12T09:39:05;11.3;8.5;6.7
53698;PMS7003;68408;53.952;27.612;2023-03-12T09:43:36;8.1;6.8;5.4
53698;PMS7003;68408;53.952;27.612;2023-03-12T09:48:55;11.3;8.6;6.8
53698;PMS7003;68408;53.952;27.612;2023-03-12T09:53:46;9.6;7.8;6.3
53698;PMS7003;68408;53.952;27.612;2023-03-12T09:58:54;10.3;8.8;7.2
53698;PMS7003;68408;53.952;27.612;2023-03-12T10:04:06;11.7;9;7.3
53698;PMS7003;68408;53.952;27.612;2023-03-12T10:08:27;8.6;7.1;5.7
53698;PMS7003;68408;53.952;27.612;2023-03-12T10:13:58;8.8;6.9;6
53698;PMS7003;68408;53.952;27.612;2023-03-12T10:18:29;7.7;5.9;4.8
53698;PMS7003;68408;53.952;27.612;2023-03-12T10:24:03;6.5;4.6;4
53698;PMS7003;68408;53.952;27.612;2023-03-12T10:29:09;6.3;4.5;3.7
53698;PMS7003;68408;53.952;27.612;2023-03-12T10:33:38;4.5;3.8;3.1
53698;PMS7003;68408;53.952;27.612;2023-03-12T10:38:56;5.8;4.5;3.6
53698;PMS7003;68408;53.952;27.612;2023-03-12T10:43:59;5.2;3.8;3.2
53698;PMS7003;68408;53.952;27.612;2023-03-12T10:49:16;5.1;3.6;2.6
53698;PMS7003;68408;53.952;27.612;2023-03-12T10:54:19;3.9;3;2.5
53698;PMS7003;68408;53.952;27.612;2023-03-12T10:58:36;3.4;2.3;1.8
53698;PMS7003;68408;53.952;27.612;2023-03-12T11:04:06;4.6;3.8;3
53698;PMS7003;68408;53.952;27.612;2023-03-12T11:08:36;4.8;3.1;2.4
53698;PMS7003;68408;53.952;27.612;2023-03-12T11:13:38;4.3;2.9;2.4
53698;PMS7003;68408;53.952;27.612;2023-03-12T11:19:10;2.6;1.6;1.1
53698;PMS7003;68408;53.952;27.612;2023-03-12T11:23:36;3.5;2.3;1.8
53698;PMS7003;68408;53.952;27.612;2023-03-12T11:28:58;3.3;2.5;2
53698;PMS7003;68408;53.952;27.612;2023-03-12T11:33:48;3.1;2.2;1.7
53698;PMS7003;68408;53.952;27.612;2023-03-12T11:38:59;4;3.4;2.6
53698;PMS7003;68408;53.952;27.612;2023-03-12T11:44:15;3.3;2.4;2
53698;PMS7003;68408;53.952;27.612;2023-03-12T11:48:46;2.3;1.7;1.5
53698;PMS7003;68408;53.952;27.612;2023-03-12T11:54:12;2;1.4;1.2
53698;PMS7003;68408;53.952;27.612;2023-03-12T11:58:53;3;1.6;1.2
53698;PMS7003;68408;53.952;27.612;2023-03-12T12:05:05;2.4;1.5;1.2
53698;PMS7003;68408;53.952;27.612;2023-03-12T12:09:14;1.9;1.1;1
53698;PMS7003;68408;53.952;27.612;2023-03-12T12:14:02;1.8;1.1;0.8
53698;PMS7003;68408;53.952;27.612;2023-03-12T12:19:01;1.3;0.7;0.5
53698;PMS7003;68408;53.952;27.612;2023-03-12T12:23:51;0.5;0.1;0.1
53698;PMS7003;68408;53.952;27.612;2023-03-12T12:29:10;0;0;0
53698;PMS7003;68408;53.952;27.612;2023-03-12T12:34:03;0.3;0;0
53698;PMS7003;68408;53.952;27.612;2023-03-12T12:38:26;0.6;0;0
53698;PMS7003;68408;53.952;27.612;2023-03-12T12:44:00;0.9;0.1;0.1
53698;PMS7003;68408;53.952;27.612;2023-03-12T12:48:38;0.2;0.1;0
53698;PMS7003;68408;53.952;27.612;2023-03-12T12:53:39;0.3;0.2;0.1
53698;PMS7003;68408;53.952;27.612;2023-03-12T12:59:20;0.2;0;0
53698;PMS7003;68408;53.952;27.612;2023-03-12T13:04:14;0.7;0.1;0
53698;PMS7003;68408;53.952;27.612;2023-03-12T13:09:12;0.4;0.2;0.1
53698;PMS7003;68408;53.952;27.612;2023-03-12T13:15:31;0.5;0;0
53698;PMS7003;68408;53.952;27.612;2023-03-12T13:19:29;0.3;0.1;0
53698;PMS7003;68408;53.952;27.612;2023-03-12T13:23:49;0.1;0.1;0
53698;PMS7003;68408;53.952;27.612;2023-03-12T13:28:54;0.3;0;0
53698;PMS7003;68408;53.952;27.612;2023-03-12T13:33:37;0.4;0;0
53698;PMS7003;68408;53.952;27.612;2023-03-12T13:39:00;0.1;0;0
53698;PMS7003;68408;53.952;27.612;2023-03-12T13:44:22;0.4;0;0
53698;PMS7003;68408;53.952;27.612;2023-03-12T13:48:50;0.1;0;0
53698;PMS7003;68408;53.952;27.612;2023-03-12T13:53:36;0;0;0
53698;PMS7003;68408;53.952;27.612;2023-03-12T13:58:39;0.1;0;0
53698;PMS7003;68408;53.952;27.612;2023-03-12T14:03:58;0.5;0.1;0.1
53698;PMS7003;68408;53.952;27.612;2023-03-12T14:08:48;0.3;0;0
53698;PMS7003;68408;53.952;27.612;2023-03-12T14:13:54;0.9;0.7;0.5
53698;PMS7003;68408;53.952;27.612;2023-03-12T14:18:26;0.6;0.4;0.3
53698;PMS7003;68408;53.952;27.612;2023-03-12T14:23:38;0;0;0
53698;PMS7003;68408;53.952;27.612;2023-03-12T14:28:54;0;0;0
53698;PMS7003;68408;53.952;27.612;2023-03-12T14:34:15;0.2;0;0
53698;PMS7003;68408;53.952;27.612;2023-03-12T14:38:27;0.1;0.1;0
53698;PMS7003;68408;53.952;27.612;2023-03-12T14:43:26;0.4;0;0
53698;PMS7003;68408;53.952;27.612;2023-03-12T14:48:51;0;0;0
53698;PMS7003;68408;53.952;27.612;2023-03-12T14:54:02;0.4;0.3;0
53698;PMS7003;68408;53.952;27.612;2023-03-12T14:59:20;0.1;0;0
53698;PMS7003;68408;53.952;27.612;2023-03-12T15:03:52;0.2;0.1;0
53698;PMS7003;68408;53.952;27.612;2023-03-12T15:08:40;0;0;0
53698;PMS7003;68408;53.952;27.612;2023-03-12T15:13:52;0.1;0;0
53698;PMS7003;68408;53.952;27.612;2023-03-12T15:19:04;0.6;0;0
53698;PMS7003;68408;53.952;27.612;2023-03-12T15:24:16;0;0;0
53698;PMS7003;68408;53.952;27.612;2023-03-12T15:28:40;0.5;0.2;0
53698;PMS7003;68408;53.952;27.612;2023-03-12T15:33:38;0.3;0.1;0.1
53698;PMS7003;68408;53.952;27.612;2023-03-12T15:38:51;0.2;0.1;0.1
53698;PMS7003;68408;53.952;27.612;2023-03-12T15:44:04;0.3;0.2;0.1
53698;PMS7003;68408;53.952;27.612;2023-03-12T15:49:19;0;0;0
53698;PMS7003;68408;53.952;27.612;2023-03-12T15:54:21;0;0;0
53698;PMS7003;68408;53.952;27.612;2023-03-12T15:58:38;0;0;0
53698;PMS7003;68408;53.952;27.612;2023-03-12T16:03:38;0.2;0;0
53698;PMS7003;68408;53.952;27.612;2023-03-12T16:09:04;0;0;0
53698;PMS7003;68408;53.952;27.612;2023-03-12T16:14:19;0.2;0;0
53698;PMS7003;68408;53.952;27.612;2023-03-12T16:18:52;0.1;0;0
53698;PMS7003;68408;53.952;27.612;2023-03-12T16:23:50;0.3;0.1;0
53698;PMS7003;68408;53.952;27.612;2023-03-12T16:28:38;0.5;0;0
53698;PMS7003;68408;53.952;27.612;2023-03-12T16:34:04;0;0;0
53698;PMS7003;68408;53.952;27.612;2023-03-12T16:39:18;0.3;0;0
53698;PMS7003;68408;53.952;27.612;2023-03-12T16:43:52;1.2;0;0
53698;PMS7003;68408;53.952;27.612;2023-03-12T16:48:26;0.2;0;0
53698;PMS7003;68408;53.952;27.612;2023-03-12T16:53:38;0.2;0.1;0
53698;PMS7003;68408;53.952;27.612;2023-03-12T16:59:02;0.3;0;0
53698;PMS7003;68408;53.952;27.612;2023-03-12T17:04:18;0.1;0;0
53698;PMS7003;68408;53.952;27.612;2023-03-12T17:08:40;0.2;0;0
53698;PMS7003;68408;53.952;27.612;2023-03-12T17:13:52;0.7;0;0
53698;PMS7003;68408;53.952;27.612;2023-03-12T17:18:50;0.1;0.1;0
53698;PMS7003;68408;53.952;27.612;2023-03-12T17:24:04;0.2;0.1;0
53698;PMS7003;68408;53.952;27.612;2023-03-12T17:29:18;0;0;0
53698;PMS7003;68408;53.952;27.612;2023-03-12T17:34:04;0.8;0.3;0.2
53698;PMS7003;68408;53.952;27.612;2023-03-12T17:38:26;1.5;1.1;0.8
53698;PMS7003;68408;53.952;27.612;2023-03-12T17:43:52;0.6;0.2;0
53698;PMS7003;68408;53.952;27.612;2023-03-12T17:49:04;0.3;0.1;0.1
53698;PMS7003;68408;53.952;27.612;2023-03-12T17:54:18;0.1;0;0
53698;PMS7003;68408;53.952;27.612;2023-03-12T17:58:38;0.3;0;0
53698;PMS7003;68408;53.952;27.612;2023-03-12T18:03:38;0.1;0;0
53698;PMS7003;68408;53.952;27.612;2023-03-12T18:08:26;0.2;0;0
53698;PMS7003;68408;53.952;27.612;2023-03-12T18:14:04;0.2;0;0
53698;PMS7003;68408;53.952;27.612;2023-03-12T18:19:04;0.6;0.1;0
53698;PMS7003;68408;53.952;27.612;2023-03-12T18:24:02;0.2;0;0
53698;PMS7003;68408;53.952;27.612;2023-03-12T18:28:52;0.1;0.1;0
53698;PMS7003;68408;53.952;27.612;2023-03-12T18:33:26;0.1;0;0
53698;PMS7003;68408;53.952;27.612;2023-03-12T18:39:05;0.8;0;0
53698;PMS7003;68408;53.952;27.612;2023-03-12T18:44:16;0.4;0.1;0.1
53698;PMS7003;68408;53.952;27.612;2023-03-12T18:49:02;3.2;2.2;1.3
53698;PMS7003;68408;53.952;27.612;2023-03-12T18:53:50;1.3;0.4;0.3
53698;PMS7003;68408;53.952;27.612;2023-03-12T18:58:51;0.4;0.1;0.1
53698;PMS7003;68408;53.952;27.612;2023-03-12T19:04:02;0.5;0.1;0
53698;PMS7003;68408;53.952;27.612;2023-03-12T19:09:16;0.8;0;0
53698;PMS7003;68408;53.952;27.612;2023-03-12T19:14:02;0.4;0;0
53698;PMS7003;68408;53.952;27.612;2023-03-12T19:18:38;0;0;0
53698;PMS7003;68408;53.952;27.612;2023-03-12T19:23:50;0.5;0;0
53698;PMS7003;68408;53.952;27.612;2023-03-12T19:28:28;0.2;0.1;0
53698;PMS7003;68408;53.952;27.612;2023-03-12T19:34:16;0.4;0;0
53698;PMS7003;68408;53.952;27.612;2023-03-12T19:39:02;0.7;0;0
53698;PMS7003;68408;53.952;27.612;2023-03-12T19:43:26;0.2;0.1;0
53698;PMS7003;68408;53.952;27.612;2023-03-12T19:49:02;0;0;0
53698;PMS7003;68408;53.952;27.612;2023-03-12T19:54:16;0.4;0.3;0.2
53698;PMS7003;68408;53.952;27.612;2023-03-12T19:59:16;0.7;0.5;0.3
53698;PMS7003;68408;53.952;27.612;2023-03-12T20:04:02;0.3;0;0
53698;PMS7003;68408;53.952;27.612;2023-03-12T20:08:26;0.2;0.1;0
53698;PMS7003;68408;53.952;27.612;2023-03-12T20:13:48;0.4;0;0
53698;PMS7003;68408;53.952;27.612;2023-03-12T20:19:02;0.7;0;0
53698;PMS7003;68408;53.952;27.612;2023-03-12T20:24:14;0.5;0;0
53698;PMS7003;68408;53.952;27.612;2023-03-12T20:29:14;0.2;0;0
53698;PMS7003;68408;53.952;27.612;2023-03-12T20:33:36;1.3;0.1;0.1
53698;PMS7003;68408;53.952;27.612;2023-03-12T20:39:04;0;0;0
53698;PMS7003;68408;53.952;27.612;2023-03-12T20:44:00;0.4;0;0
53698;PMS7003;68408;53.952;27.612;2023-03-12T20:48:50;0.3;0;0
53698;PMS7003;68408;53.952;27.612;2023-03-12T20:54:02;0.1;0.1;0.1
53698;PMS7003;68408;53.952;27.612;2023-03-12T20:58:26;0.7;0.1;0
53698;PMS7003;68408;53.952;27.612;2023-03-12T21:03:50;0.2;0.1;0.1
53698;PMS7003;68408;53.952;27.612;2023-03-12T21:09:02;0.3;0.1;0.1
53698;PMS7003;68408;53.952;27.612;2023-03-12T21:14:14;0.2;0;0
53698;PMS7003;68408;53.952;27.612;2023-03-12T21:19:02;0.6;0.1;0
53698;PMS7003;68408;53.952;27.612;2023-03-12T21:23:36;0.5;0.1;0.1
53698;PMS7003;68408;53.952;27.612;2023-03-12T21:28:50;0.9;0.2;0.1
53698;PMS7003;68408;53.952;27.612;2023-03-12T21:34:02;0.5;0.1;0
53698;PMS7003;68408;53.952;27.612;2023-03-12T21:39:16;0.3;0.2;0.1
53698;PMS7003;68408;53.952;27.612;2023-03-12T21:44:02;0.7;0.2;0.1
53698;PMS7003;68408;53.952;27.612;2023-03-12T21:48:36;0.6;0.2;0.1
53698;PMS7003;68408;53.952;27.612;2023-03-12T21:53:51;0.5;0.2;0.1
53698;PMS7003;68408;53.952;27.612;2023-03-12T21:59:02;1;0.2;0.2
53698;PMS7003;68408;53.952;27.612;2023-03-12T22:04:16;0.4;0.1;0.1
53698;PMS7003;68408;53.952;27.612;2023-03-12T22:08:40;0.1;0.1;0
53698;PMS7003;68408;53.952;27.612;2023-03-12T22:13:36;0.7;0.3;0.3
53698;PMS7003;68408;53.952;27.612;2023-03-12T22:19:04;0.6;0.1;0.1
53698;PMS7003;68408;53.952;27.612;2023-03-12T22:24:00;0.4;0.3;0.2
53698;PMS7003;68408;53.952;27.612;2023-03-12T22:29:14;0.1;0.1;0.1
53698;PMS7003;68408;53.952;27.612;2023-03-12T22:34:00;0.1;0.1;0.1
53698;PMS7003;68408;53.952;27.612;2023-03-12T22:38:48;0.6;0.3;0.1
53698;PMS7003;68408;53.952;27.612;2023-03-12T22:43:50;0.9;0.2;0
53698;PMS7003;68408;53.952;27.612;2023-03-12T22:49:00;0.3;0.1;0
53698;PMS7003;68408;53.952;27.612;2023-03-12T22:54:16;0.6;0.2;0.1
53698;PMS7003;68408;53.952;27.612;2023-03-12T22:59:02;0.5;0.1;0.1
53698;PMS7003;68408;53.952;27.612;2023-03-12T23:03:26;0.4;0.1;0.1
53698;PMS7003;68408;53.952;27.612;2023-03-12T23:08:36;1.1;0.2;0.1
53698;PMS7003;68408;53.952;27.612;2023-03-12T23:14:00;0.2;0.1;0.1
53698;PMS7003;68408;53.952;27.612;2023-03-12T23:19:16;0.1;0;0
53698;PMS7003;68408;53.952;27.612;2023-03-12T23:24:02;0.1;0.1;0
53698;PMS7003;68408;53.952;27.612;2023-03-12T23:28:26;0.5;0;0
53698;PMS7003;68408;53.952;27.612;2023-03-12T23:33:38;0.4;0;0
53698;PMS7003;68408;53.952;27.612;2023-03-12T23:38:48;0.5;0.1;0
53698;PMS7003;68408;53.952;27.612;2023-03-12T23:44:12;0.1;0;0
53698;PMS7003;68408;53.952;27.612;2023-03-12T23:49:00;0.3;0;0
53698;PMS7003;68408;53.952;27.612;2023-03-12T23:54:00;0.1;0;0
53698;PMS7003;68408;53.952;27.612;2023-03-12T23:58:50;0.2;0;0
